sensor_id;sensor_type;location;lat;lon;timestamp;temperature;humidity
3850;DHT22;1940;51.052;13.678;2023-03-01T00:01:12;-1.50;86.20
3850;DHT22;1940;51.052;13.678;2023-03-01T00:03:38;-1.60;86.40
3850;DHT22;1940;51.052;13.678;2023-03-01T00:06:05;-1.60;86.70
3850;DHT22;1940;51.052;13.678;2023-03-01T00:08:31;-1.60;86.70
3850;DHT22;1940;51.052;13.678;2023-03-01T00:11:05;-1.60;86.80
3850;DHT22;1940;51.052;13.678;2023-03-01T00:13:32;-1.70;87.00
3850;DHT22;1940;51.052;13.678;2023-03-01T00:15:57;-1.70;87.10
3850;DHT22;1940;51.052;13.678;2023-03-01T00:18:23;-1.70;87.20
3850;DHT22;1940;51.052;13.678;2023-03-01T00:20:53;-1.70;87.20
3850;DHT22;1940;51.052;13.678;2023-03-01T00:23:19;-1.80;87.20
3850;DHT22;1940;51.052;13.678;2023-03-01T00:25:45;-1.80;87.40
3850;DHT22;1940;51.052;13.678;2023-03-01T00:28:11;-1.70;87.50
3850;DHT22;1940;51.052;13.678;2023-03-01T00:30:36;-1.70;87.30
3850;DHT22;1940;51.052;13.678;2023-03-01T00:33:02;-1.80;87.30
3850;DHT22;1940;51.052;13.678;2023-03-01T00:35:28;-1.80;87.20
3850;DHT22;1940;51.052;13.678;2023-03-01T00:37:53;-1.80;87.00
3850;DHT22;1940;51.052;13.678;2023-03-01T00:40:26;-1.80;87.20
3850;DHT22;1940;51.052;13.678;2023-03-01T00:42:52;-1.80;87.10
3850;DHT22;1940;51.052;13.678;2023-03-01T00:45:18;-1.80;87.20
3850;DHT22;1940;51.052;13.678;2023-03-01T00:47:44;-1.80;87.20
3850;DHT22;1940;51.052;13.678;2023-03-01T00:50:10;-1.80;87.10
3850;DHT22;1940;51.052;13.678;2023-03-01T00:52:36;-1.90;87.20
3850;DHT22;1940;51.052;13.678;2023-03-01T00:55:02;-1.90;87.30
3850;DHT22;1940;51.052;13.678;2023-03-01T00:57:28;-1.90;87.20
3850;DHT22;1940;51.052;13.678;2023-03-01T00:59:53;-1.90;87.20
3850;DHT22;1940;51.052;13.678;2023-03-01T01:02:19;-2.00;87.10
3850;DHT22;1940;51.052;13.678;2023-03-01T01:04:45;-2.00;87.40
3850;DHT22;1940;51.052;13.678;2023-03-01T01:07:11;-2.00;87.30
3850;DHT22;1940;51.052;13.678;2023-03-01T01:09:36;-2.00;87.40
3850;DHT22;1940;51.052;13.678;2023-03-01T01:12:03;-2.00;87.50
3850;DHT22;1940;51.052;13.678;2023-03-01T01:14:29;-2.10;87.40
3850;DHT22;1940;51.052;13.678;2023-03-01T01:16:54;-2.10;87.40
3850;DHT22;1940;51.052;13.678;2023-03-01T01:19:20;-2.10;87.40
3850;DHT22;1940;51.052;13.678;2023-03-01T01:21:46;-2.10;87.50
3850;DHT22;1940;51.052;13.678;2023-03-01T01:24:13;-2.20;87.60
3850;DHT22;1940;51.052;13.678;2023-03-01T01:26:39;-2.20;87.60
3850;DHT22;1940;51.052;13.678;2023-03-01T01:29:05;-2.20;87.70
3850;DHT22;1940;51.052;13.678;2023-03-01T01:31:32;-2.30;87.80
3850;DHT22;1940;51.052;13.678;2023-03-01T01:33:59;-2.30;88.00
3850;DHT22;1940;51.052;13.678;2023-03-01T01:36:25;-2.30;88.20
3850;DHT22;1940;51.052;13.678;2023-03-01T01:38:51;-2.30;88.30
3850;DHT22;1940;51.052;13.678;2023-03-01T01:41:17;-2.30;88.50
3850;DHT22;1940;51.052;13.678;2023-03-01T01:43:46;-2.40;88.50
3850;DHT22;1940;51.052;13.678;2023-03-01T01:46:32;-2.50;88.50
3850;DHT22;1940;51.052;13.678;2023-03-01T01:49:14;-2.50;88.80
3850;DHT22;1940;51.052;13.678;2023-03-01T01:51:44;-2.40;88.70
3850;DHT22;1940;51.052;13.678;2023-03-01T01:54:17;-2.40;88.80
3850;DHT22;1940;51.052;13.678;2023-03-01T01:56:48;-2.40;88.90
3850;DHT22;1940;51.052;13.678;2023-03-01T01:59:15;-2.40;89.00
3850;DHT22;1940;51.052;13.678;2023-03-01T02:01:41;-2.50;89.10
3850;DHT22;1940;51.052;13.678;2023-03-01T02:04:07;-2.50;89.50
3850;DHT22;1940;51.052;13.678;2023-03-01T02:06:39;-2.50;89.50
3850;DHT22;1940;51.052;13.678;2023-03-01T02:09:14;-2.40;89.30
3850;DHT22;1940;51.052;13.678;2023-03-01T02:11:41;-2.40;89.20
3850;DHT22;1940;51.052;13.678;2023-03-01T02:14:06;-2.50;88.90
3850;DHT22;1940;51.052;13.678;2023-03-01T02:16:32;-2.60;89.10
3850;DHT22;1940;51.052;13.678;2023-03-01T02:18:58;-2.50;89.30
3850;DHT22;1940;51.052;13.678;2023-03-01T02:21:56;-2.50;89.50
3850;DHT22;1940;51.052;13.678;2023-03-01T02:26:56;-2.50;89.60
3850;DHT22;1940;51.052;13.678;2023-03-01T02:29:23;-2.50;89.70
3850;DHT22;1940;51.052;13.678;2023-03-01T02:31:49;-2.60;89.30
3850;DHT22;1940;51.052;13.678;2023-03-01T02:34:19;-2.70;89.70
3850;DHT22;1940;51.052;13.678;2023-03-01T02:36:47;-2.70;89.70
3850;DHT22;1940;51.052;13.678;2023-03-01T02:39:17;-2.90;90.10
3850;DHT22;1940;51.052;13.678;2023-03-01T02:41:53;-2.90;90.40
3850;DHT22;1940;51.052;13.678;2023-03-01T02:44:19;-2.90;90.30
3850;DHT22;1940;51.052;13.678;2023-03-01T02:46:54;-2.80;90.10
3850;DHT22;1940;51.052;13.678;2023-03-01T02:49:30;-2.90;89.80
3850;DHT22;1940;51.052;13.678;2023-03-01T02:52:07;-2.90;89.70
3850;DHT22;1940;51.052;13.678;2023-03-01T02:55:02;-2.90;89.90
3850;DHT22;1940;51.052;13.678;2023-03-01T02:57:31;-2.80;89.70
3850;DHT22;1940;51.052;13.678;2023-03-01T02:59:59;-2.70;89.40
3850;DHT22;1940;51.052;13.678;2023-03-01T03:02:29;-2.70;89.40
3850;DHT22;1940;51.052;13.678;2023-03-01T03:05:17;-2.70;89.40
3850;DHT22;1940;51.052;13.678;2023-03-01T03:07:45;-2.80;89.30
3850;DHT22;1940;51.052;13.678;2023-03-01T03:10:13;-2.80;89.30
3850;DHT22;1940;51.052;13.678;2023-03-01T03:12:40;-2.90;89.20
3850;DHT22;1940;51.052;13.678;2023-03-01T03:15:07;-2.90;89.10
3850;DHT22;1940;51.052;13.678;2023-03-01T03:17:37;-3.10;89.10
3850;DHT22;1940;51.052;13.678;2023-03-01T03:20:05;-3.10;89.40
3850;DHT22;1940;51.052;13.678;2023-03-01T03:22:31;-3.10;89.30
3850;DHT22;1940;51.052;13.678;2023-03-01T03:24:59;-3.00;89.30
3850;DHT22;1940;51.052;13.678;2023-03-01T03:27:24;-3.00;89.40
3850;DHT22;1940;51.052;13.678;2023-03-01T03:29:50;-3.00;89.60
3850;DHT22;1940;51.052;13.678;2023-03-01T03:32:15;-3.00;89.80
3850;DHT22;1940;51.052;13.678;2023-03-01T03:34:41;-3.10;89.70
3850;DHT22;1940;51.052;13.678;2023-03-01T03:37:06;-3.10;89.90
3850;DHT22;1940;51.052;13.678;2023-03-01T03:39:52;-3.10;89.80
3850;DHT22;1940;51.052;13.678;2023-03-01T03:42:20;-3.10;89.70
3850;DHT22;1940;51.052;13.678;2023-03-01T03:44:46;-3.20;89.70
3850;DHT22;1940;51.052;13.678;2023-03-01T03:47:12;-3.20;89.70
3850;DHT22;1940;51.052;13.678;2023-03-01T03:49:37;-3.20;89.70
3850;DHT22;1940;51.052;13.678;2023-03-01T03:52:03;-3.20;89.70
3850;DHT22;1940;51.052;13.678;2023-03-01T03:54:28;-3.30;89.70
3850;DHT22;1940;51.052;13.678;2023-03-01T03:56:54;-3.20;90.00
3850;DHT22;1940;51.052;13.678;2023-03-01T03:59:19;-3.30;90.00
3850;DHT22;1940;51.052;13.678;2023-03-01T04:01:45;-3.30;89.90
3850;DHT22;1940;51.052;13.678;2023-03-01T04:04:10;-3.40;90.00
3850;DHT22;1940;51.052;13.678;2023-03-01T04:06:35;-3.40;90.20
3850;DHT22;1940;51.052;13.678;2023-03-01T04:09:01;-3.40;90.20
3850;DHT22;1940;51.052;13.678;2023-03-01T04:11:28;-3.40;90.00
3850;DHT22;1940;51.052;13.678;2023-03-01T04:13:55;-3.40;90.00
3850;DHT22;1940;51.052;13.678;2023-03-01T04:16:22;-3.40;90.20
3850;DHT22;1940;51.052;13.678;2023-03-01T04:18:47;-3.40;90.20
3850;DHT22;1940;51.052;13.678;2023-03-01T04:21:14;-3.40;90.40
3850;DHT22;1940;51.052;13.678;2023-03-01T04:23:39;-3.30;90.60
3850;DHT22;1940;51.052;13.678;2023-03-01T04:26:06;-3.40;90.60
3850;DHT22;1940;51.052;13.678;2023-03-01T04:28:36;-3.40;90.50
3850;DHT22;1940;51.052;13.678;2023-03-01T04:31:07;-3.30;90.50
3850;DHT22;1940;51.052;13.678;2023-03-01T04:33:53;-3.40;90.40
3850;DHT22;1940;51.052;13.678;2023-03-01T04:36:21;-3.50;90.40
3850;DHT22;1940;51.052;13.678;2023-03-01T04:38:46;-3.60;90.40
3850;DHT22;1940;51.052;13.678;2023-03-01T04:41:20;-3.80;90.40
3850;DHT22;1940;51.052;13.678;2023-03-01T04:43:46;-3.80;91.20
3850;DHT22;1940;51.052;13.678;2023-03-01T04:46:13;-3.70;91.20
3850;DHT22;1940;51.052;13.678;2023-03-01T04:48:40;-3.70;90.90
3850;DHT22;1940;51.052;13.678;2023-03-01T04:51:06;-3.60;91.40
3850;DHT22;1940;51.052;13.678;2023-03-01T04:53:33;-3.60;91.20
3850;DHT22;1940;51.052;13.678;2023-03-01T04:56:01;-3.50;91.40
3850;DHT22;1940;51.052;13.678;2023-03-01T04:58:27;-3.50;91.30
3850;DHT22;1940;51.052;13.678;2023-03-01T05:00:54;-3.50;91.10
3850;DHT22;1940;51.052;13.678;2023-03-01T05:03:20;-3.50;90.90
3850;DHT22;1940;51.052;13.678;2023-03-01T05:05:47;-3.60;90.80
3850;DHT22;1940;51.052;13.678;2023-03-01T05:08:14;-3.70;90.70
3850;DHT22;1940;51.052;13.678;2023-03-01T05:10:50;-3.70;90.80
3850;DHT22;1940;51.052;13.678;2023-03-01T05:13:17;-3.60;90.60
3850;DHT22;1940;51.052;13.678;2023-03-01T05:15:59;-3.70;90.50
3850;DHT22;1940;51.052;13.678;2023-03-01T05:18:26;-3.60;90.70
3850;DHT22;1940;51.052;13.678;2023-03-01T05:21:01;-3.60;90.80
3850;DHT22;1940;51.052;13.678;2023-03-01T05:23:27;-3.60;90.80
3850;DHT22;1940;51.052;13.678;2023-03-01T05:25:52;-3.60;90.50
3850;DHT22;1940;51.052;13.678;2023-03-01T05:28:20;-3.70;90.20
3850;DHT22;1940;51.052;13.678;2023-03-01T05:30:46;-3.70;90.00
3850;DHT22;1940;51.052;13.678;2023-03-01T05:33:12;-3.80;90.20
3850;DHT22;1940;51.052;13.678;2023-03-01T05:35:44;-3.80;90.40
3850;DHT22;1940;51.052;13.678;2023-03-01T05:38:10;-3.80;90.40
3850;DHT22;1940;51.052;13.678;2023-03-01T05:40:39;-3.80;90.40
3850;DHT22;1940;51.052;13.678;2023-03-01T05:43:05;-3.80;90.70
3850;DHT22;1940;51.052;13.678;2023-03-01T05:45:31;-3.80;90.70
3850;DHT22;1940;51.052;13.678;2023-03-01T05:47:58;-3.90;90.90
3850;DHT22;1940;51.052;13.678;2023-03-01T05:50:33;-3.90;91.10
3850;DHT22;1940;51.052;13.678;2023-03-01T05:53:02;-3.90;91.20
3850;DHT22;1940;51.052;13.678;2023-03-01T05:55:29;-3.90;91.10
3850;DHT22;1940;51.052;13.678;2023-03-01T05:57:55;-3.90;91.10
3850;DHT22;1940;51.052;13.678;2023-03-01T06:00:21;-3.90;91.20
3850;DHT22;1940;51.052;13.678;2023-03-01T06:02:48;-3.90;91.30
3850;DHT22;1940;51.052;13.678;2023-03-01T06:05:14;-3.90;91.30
3850;DHT22;1940;51.052;13.678;2023-03-01T06:07:40;-3.90;91.30
3850;DHT22;1940;51.052;13.678;2023-03-01T06:10:07;-3.80;91.20
3850;DHT22;1940;51.052;13.678;2023-03-01T06:12:35;-3.80;91.20
3850;DHT22;1940;51.052;13.678;2023-03-01T06:15:01;-3.70;91.20
3850;DHT22;1940;51.052;13.678;2023-03-01T06:17:32;-3.70;91.30
3850;DHT22;1940;51.052;13.678;2023-03-01T06:19:58;-3.60;91.20
3850;DHT22;1940;51.052;13.678;2023-03-01T06:22:23;-3.50;90.90
3850;DHT22;1940;51.052;13.678;2023-03-01T06:24:49;-3.50;90.70
3850;DHT22;1940;51.052;13.678;2023-03-01T06:27:15;-3.50;90.90
3850;DHT22;1940;51.052;13.678;2023-03-01T06:29:41;-3.50;90.80
3850;DHT22;1940;51.052;13.678;2023-03-01T06:32:06;-3.50;90.70
3850;DHT22;1940;51.052;13.678;2023-03-01T06:34:33;-3.40;90.80
3850;DHT22;1940;51.052;13.678;2023-03-01T06:36:58;-3.30;90.80
3850;DHT22;1940;51.052;13.678;2023-03-01T06:39:24;-3.20;90.60
3850;DHT22;1940;51.052;13.678;2023-03-01T06:41:49;-3.10;90.40
3850;DHT22;1940;51.052;13.678;2023-03-01T06:44:15;-3.20;90.30
3850;DHT22;1940;51.052;13.678;2023-03-01T06:46:40;-3.10;90.70
3850;DHT22;1940;51.052;13.678;2023-03-01T06:49:06;-3.10;91.00
3850;DHT22;1940;51.052;13.678;2023-03-01T06:51:35;-2.90;91.00
3850;DHT22;1940;51.052;13.678;2023-03-01T06:54:02;-2.80;90.80
3850;DHT22;1940;51.052;13.678;2023-03-01T06:56:27;-2.70;90.70
3850;DHT22;1940;51.052;13.678;2023-03-01T06:58:53;-2.60;90.30
3850;DHT22;1940;51.052;13.678;2023-03-01T07:01:18;-2.60;89.80
3850;DHT22;1940;51.052;13.678;2023-03-01T07:03:44;-2.30;89.40
3850;DHT22;1940;51.052;13.678;2023-03-01T07:06:10;-2.30;88.80
3850;DHT22;1940;51.052;13.678;2023-03-01T07:08:35;-2.20;88.40
3850;DHT22;1940;51.052;13.678;2023-03-01T07:11:01;-2.00;87.80
3850;DHT22;1940;51.052;13.678;2023-03-01T07:13:27;-1.90;87.00
3850;DHT22;1940;51.052;13.678;2023-03-01T07:15:53;-1.80;86.50
3850;DHT22;1940;51.052;13.678;2023-03-01T07:18:19;-1.80;86.00
3850;DHT22;1940;51.052;13.678;2023-03-01T07:20:44;-1.70;85.80
3850;DHT22;1940;51.052;13.678;2023-03-01T07:23:09;-1.70;86.00
3850;DHT22;1940;51.052;13.678;2023-03-01T07:25:35;-1.60;85.80
3850;DHT22;1940;51.052;13.678;2023-03-01T07:28:00;-1.50;85.50
3850;DHT22;1940;51.052;13.678;2023-03-01T07:30:26;-1.40;85.10
3850;DHT22;1940;51.052;13.678;2023-03-01T07:32:54;-1.50;84.80
3850;DHT22;1940;51.052;13.678;2023-03-01T07:35:19;-1.50;85.00
3850;DHT22;1940;51.052;13.678;2023-03-01T07:37:45;-1.20;85.00
3850;DHT22;1940;51.052;13.678;2023-03-01T07:40:11;-1.00;84.30
3850;DHT22;1940;51.052;13.678;2023-03-01T07:42:37;-0.90;83.50
3850;DHT22;1940;51.052;13.678;2023-03-01T07:45:03;-0.60;83.50
3850;DHT22;1940;51.052;13.678;2023-03-01T07:47:29;-0.10;82.70
3850;DHT22;1940;51.052;13.678;2023-03-01T07:49:54;1.00;82.40
3850;DHT22;1940;51.052;13.678;2023-03-01T07:52:20;2.60;79.30
3850;DHT22;1940;51.052;13.678;2023-03-01T07:54:45;3.80;74.10
3850;DHT22;1940;51.052;13.678;2023-03-01T07:57:11;5.10;70.00
3850;DHT22;1940;51.052;13.678;2023-03-01T07:59:36;6.70;67.10
3850;DHT22;1940;51.052;13.678;2023-03-01T08:02:02;7.30;62.20
3850;DHT22;1940;51.052;13.678;2023-03-01T08:04:27;7.30;61.40
3850;DHT22;1940;51.052;13.678;2023-03-01T08:06:54;8.20;58.70
3850;DHT22;1940;51.052;13.678;2023-03-01T08:09:20;8.40;57.00
3850;DHT22;1940;51.052;13.678;2023-03-01T08:11:45;7.60;58.10
3850;DHT22;1940;51.052;13.678;2023-03-01T08:14:11;8.00;58.40
3850;DHT22;1940;51.052;13.678;2023-03-01T08:16:37;9.40;56.20
3850;DHT22;1940;51.052;13.678;2023-03-01T08:19:06;10.20;53.90
3850;DHT22;1940;51.052;13.678;2023-03-01T08:21:32;10.00;53.00
3850;DHT22;1940;51.052;13.678;2023-03-01T08:24:08;9.30;54.30
3850;DHT22;1940;51.052;13.678;2023-03-01T08:26:36;9.10;55.00
3850;DHT22;1940;51.052;13.678;2023-03-01T08:29:02;8.80;55.30
3850;DHT22;1940;51.052;13.678;2023-03-01T08:31:31;9.40;54.70
3850;DHT22;1940;51.052;13.678;2023-03-01T08:34:00;10.10;53.30
3850;DHT22;1940;51.052;13.678;2023-03-01T08:36:28;10.00;52.60
3850;DHT22;1940;51.052;13.678;2023-03-01T08:38:54;10.00;52.40
3850;DHT22;1940;51.052;13.678;2023-03-01T08:41:20;10.10;52.60
3850;DHT22;1940;51.052;13.678;2023-03-01T08:43:46;10.40;51.90
3850;DHT22;1940;51.052;13.678;2023-03-01T08:46:12;12.00;50.00
3850;DHT22;1940;51.052;13.678;2023-03-01T08:48:38;12.50;48.40
3850;DHT22;1940;51.052;13.678;2023-03-01T08:51:08;12.60;48.10
3850;DHT22;1940;51.052;13.678;2023-03-01T08:53:34;13.40;46.80
3850;DHT22;1940;51.052;13.678;2023-03-01T08:56:00;14.60;46.20
3850;DHT22;1940;51.052;13.678;2023-03-01T08:58:28;14.50;44.90
3850;DHT22;1940;51.052;13.678;2023-03-01T09:00:53;14.60;46.00
3850;DHT22;1940;51.052;13.678;2023-03-01T09:03:19;14.70;44.10
3850;DHT22;1940;51.052;13.678;2023-03-01T09:05:44;14.40;45.30
3850;DHT22;1940;51.052;13.678;2023-03-01T09:08:11;14.80;45.30
3850;DHT22;1940;51.052;13.678;2023-03-01T09:10:39;14.60;45.00
3850;DHT22;1940;51.052;13.678;2023-03-01T09:13:05;14.80;44.40
3850;DHT22;1940;51.052;13.678;2023-03-01T09:15:30;14.30;44.90
3850;DHT22;1940;51.052;13.678;2023-03-01T09:17:56;14.30;45.50
3850;DHT22;1940;51.052;13.678;2023-03-01T09:20:21;15.70;43.40
3850;DHT22;1940;51.052;13.678;2023-03-01T09:22:47;15.70;42.70
3850;DHT22;1940;51.052;13.678;2023-03-01T09:25:12;16.40;42.90
3850;DHT22;1940;51.052;13.678;2023-03-01T09:27:38;17.50;40.80
3850;DHT22;1940;51.052;13.678;2023-03-01T09:30:04;16.70;41.10
3850;DHT22;1940;51.052;13.678;2023-03-01T09:32:30;16.80;41.90
3850;DHT22;1940;51.052;13.678;2023-03-01T09:34:56;16.00;42.70
3850;DHT22;1940;51.052;13.678;2023-03-01T09:37:33;16.30;42.50
3850;DHT22;1940;51.052;13.678;2023-03-01T09:39:58;16.40;41.70
3850;DHT22;1940;51.052;13.678;2023-03-01T09:42:24;17.00;41.60
3850;DHT22;1940;51.052;13.678;2023-03-01T09:47:45;16.50;41.50
3850;DHT22;1940;51.052;13.678;2023-03-01T09:50:16;15.80;42.80
3850;DHT22;1940;51.052;13.678;2023-03-01T09:53:03;14.90;43.70
3850;DHT22;1940;51.052;13.678;2023-03-01T09:55:44;14.50;44.00
3850;DHT22;1940;51.052;13.678;2023-03-01T10:00:47;14.70;44.20
3850;DHT22;1940;51.052;13.678;2023-03-01T10:06:15;14.40;44.40
3850;DHT22;1940;51.052;13.678;2023-03-01T10:08:57;14.80;44.20
3850;DHT22;1940;51.052;13.678;2023-03-01T10:11:33;16.10;43.40
3850;DHT22;1940;51.052;13.678;2023-03-01T10:14:18;16.00;42.50
3850;DHT22;1940;51.052;13.678;2023-03-01T10:19:24;16.90;41.70
3850;DHT22;1940;51.052;13.678;2023-03-01T10:21:51;16.70;41.50
3850;DHT22;1940;51.052;13.678;2023-03-01T10:24:18;16.60;41.80
3850;DHT22;1940;51.052;13.678;2023-03-01T10:26:58;16.40;41.40
3850;DHT22;1940;51.052;13.678;2023-03-01T10:29:39;16.60;42.00
3850;DHT22;1940;51.052;13.678;2023-03-01T10:32:09;16.60;41.50
3850;DHT22;1940;51.052;13.678;2023-03-01T10:34:35;16.30;42.30
3850;DHT22;1940;51.052;13.678;2023-03-01T10:40:12;16.50;41.80
3850;DHT22;1940;51.052;13.678;2023-03-01T10:42:45;15.70;42.80
3850;DHT22;1940;51.052;13.678;2023-03-01T10:48:11;17.10;41.50
3850;DHT22;1940;51.052;13.678;2023-03-01T10:50:39;17.20;40.90
3850;DHT22;1940;51.052;13.678;2023-03-01T10:53:30;17.70;40.60
3850;DHT22;1940;51.052;13.678;2023-03-01T10:56:09;17.30;40.80
3850;DHT22;1940;51.052;13.678;2023-03-01T10:58:37;15.80;42.70
3850;DHT22;1940;51.052;13.678;2023-03-01T11:06:33;15.30;43.60
3850;DHT22;1940;51.052;13.678;2023-03-01T11:09:21;15.40;43.80
3850;DHT22;1940;51.052;13.678;2023-03-01T11:11:53;14.70;44.50
3850;DHT22;1940;51.052;13.678;2023-03-01T11:14:22;14.30;45.50
3850;DHT22;1940;51.052;13.678;2023-03-01T11:17:02;14.20;45.20
3850;DHT22;1940;51.052;13.678;2023-03-01T11:19:28;14.50;44.50
3850;DHT22;1940;51.052;13.678;2023-03-01T11:21:59;15.00;43.50
3850;DHT22;1940;51.052;13.678;2023-03-01T11:24:44;14.80;43.50
3850;DHT22;1940;51.052;13.678;2023-03-01T11:27:26;15.00;43.30
3850;DHT22;1940;51.052;13.678;2023-03-01T11:32:33;15.70;43.20
3850;DHT22;1940;51.052;13.678;2023-03-01T11:35:10;15.40;42.90
3850;DHT22;1940;51.052;13.678;2023-03-01T11:40:48;15.80;42.90
3850;DHT22;1940;51.052;13.678;2023-03-01T11:43:26;15.40;42.40
3850;DHT22;1940;51.052;13.678;2023-03-01T11:46:18;15.40;42.70
3850;DHT22;1940;51.052;13.678;2023-03-01T11:49:03;15.60;42.00
3850;DHT22;1940;51.052;13.678;2023-03-01T11:52:08;15.40;42.90
3850;DHT22;1940;51.052;13.678;2023-03-01T12:05:54;14.50;42.80
3850;DHT22;1940;51.052;13.678;2023-03-01T12:17:27;12.10;43.70
3850;DHT22;1940;51.052;13.678;2023-03-01T12:20:10;12.00;44.60
3850;DHT22;1940;51.052;13.678;2023-03-01T12:23:03;11.40;44.50
3850;DHT22;1940;51.052;13.678;2023-03-01T12:25:53;10.50;45.10
3850;DHT22;1940;51.052;13.678;2023-03-01T12:28:32;9.40;47.10
3850;DHT22;1940;51.052;13.678;2023-03-01T12:36:52;7.70;50.80
3850;DHT22;1940;51.052;13.678;2023-03-01T12:42:47;6.80;52.90
3850;DHT22;1940;51.052;13.678;2023-03-01T12:45:57;6.60;52.60
3850;DHT22;1940;51.052;13.678;2023-03-01T12:51:31;6.60;54.40
3850;DHT22;1940;51.052;13.678;2023-03-01T12:54:00;6.40;54.20
3850;DHT22;1940;51.052;13.678;2023-03-01T12:56:31;6.50;54.30
3850;DHT22;1940;51.052;13.678;2023-03-01T13:01:56;6.40;56.10
3850;DHT22;1940;51.052;13.678;2023-03-01T13:04:32;6.40;57.00
3850;DHT22;1940;51.052;13.678;2023-03-01T13:10:18;6.40;57.80
3850;DHT22;1940;51.052;13.678;2023-03-01T13:20:17;6.30;57.40
3850;DHT22;1940;51.052;13.678;2023-03-01T13:22:45;6.30;57.90
3850;DHT22;1940;51.052;13.678;2023-03-01T13:25:15;6.20;58.10
3850;DHT22;1940;51.052;13.678;2023-03-01T13:27:41;6.10;57.50
3850;DHT22;1940;51.052;13.678;2023-03-01T13:35:58;6.10;58.10
3850;DHT22;1940;51.052;13.678;2023-03-01T13:38:44;6.20;56.60
3850;DHT22;1940;51.052;13.678;2023-03-01T13:41:15;6.00;56.20
3850;DHT22;1940;51.052;13.678;2023-03-01T13:43:43;6.20;56.40
3850;DHT22;1940;51.052;13.678;2023-03-01T13:46:18;6.20;56.30
3850;DHT22;1940;51.052;13.678;2023-03-01T13:48:49;6.30;56.70
3850;DHT22;1940;51.052;13.678;2023-03-01T13:51:15;6.30;57.50
3850;DHT22;1940;51.052;13.678;2023-03-01T13:53:43;6.30;57.20
3850;DHT22;1940;51.052;13.678;2023-03-01T13:56:13;6.40;57.10
3850;DHT22;1940;51.052;13.678;2023-03-01T13:58:49;6.40;57.20
3850;DHT22;1940;51.052;13.678;2023-03-01T14:03:49;6.60;56.50
3850;DHT22;1940;51.052;13.678;2023-03-01T14:06:19;6.50;55.90
3850;DHT22;1940;51.052;13.678;2023-03-01T14:08:48;6.50;56.80
3850;DHT22;1940;51.052;13.678;2023-03-01T14:11:35;6.60;56.30
3850;DHT22;1940;51.052;13.678;2023-03-01T14:17:11;6.70;54.60
3850;DHT22;1940;51.052;13.678;2023-03-01T14:19:40;6.70;55.40
3850;DHT22;1940;51.052;13.678;2023-03-01T14:22:24;6.50;56.30
3850;DHT22;1940;51.052;13.678;2023-03-01T14:25:01;6.50;56.70
3850;DHT22;1940;51.052;13.678;2023-03-01T14:27:38;6.30;55.70
3850;DHT22;1940;51.052;13.678;2023-03-01T14:30:13;6.10;57.00
3850;DHT22;1940;51.052;13.678;2023-03-01T14:32:39;6.10;57.90
3850;DHT22;1940;51.052;13.678;2023-03-01T14:35:30;6.10;57.50
3850;DHT22;1940;51.052;13.678;2023-03-01T14:37:56;6.00;56.70
3850;DHT22;1940;51.052;13.678;2023-03-01T14:40:24;6.10;56.20
3850;DHT22;1940;51.052;13.678;2023-03-01T14:42:50;6.10;56.20
3850;DHT22;1940;51.052;13.678;2023-03-01T14:45:17;6.20;55.90
3850;DHT22;1940;51.052;13.678;2023-03-01T14:47:43;6.20;55.90
3850;DHT22;1940;51.052;13.678;2023-03-01T14:52:46;6.10;56.40
3850;DHT22;1940;51.052;13.678;2023-03-01T14:55:21;6.00;56.70
3850;DHT22;1940;51.052;13.678;2023-03-01T14:57:51;6.10;56.80
3850;DHT22;1940;51.052;13.678;2023-03-01T15:00:23;6.10;57.10
3850;DHT22;1940;51.052;13.678;2023-03-01T15:02:50;6.00;57.30
3850;DHT22;1940;51.052;13.678;2023-03-01T15:05:27;6.00;57.40
3850;DHT22;1940;51.052;13.678;2023-03-01T15:07:54;6.10;57.50
3850;DHT22;1940;51.052;13.678;2023-03-01T15:10:26;6.10;57.60
3850;DHT22;1940;51.052;13.678;2023-03-01T15:12:52;6.10;57.80
3850;DHT22;1940;51.052;13.678;2023-03-01T15:15:30;6.20;58.20
3850;DHT22;1940;51.052;13.678;2023-03-01T15:18:02;6.20;58.20
3850;DHT22;1940;51.052;13.678;2023-03-01T15:20:29;6.10;58.50
3850;DHT22;1940;51.052;13.678;2023-03-01T15:22:56;6.10;58.40
3850;DHT22;1940;51.052;13.678;2023-03-01T15:25:26;6.00;58.80
3850;DHT22;1940;51.052;13.678;2023-03-01T15:27:54;6.00;59.30
3850;DHT22;1940;51.052;13.678;2023-03-01T15:30:32;6.00;59.30
3850;DHT22;1940;51.052;13.678;2023-03-01T15:35:53;6.00;59.60
3850;DHT22;1940;51.052;13.678;2023-03-01T15:38:36;6.00;59.50
3850;DHT22;1940;51.052;13.678;2023-03-01T15:41:22;6.10;59.60
3850;DHT22;1940;51.052;13.678;2023-03-01T15:43:48;6.10;59.70
3850;DHT22;1940;51.052;13.678;2023-03-01T15:46:28;6.10;59.80
3850;DHT22;1940;51.052;13.678;2023-03-01T15:49:05;6.10;59.90
3850;DHT22;1940;51.052;13.678;2023-03-01T15:51:42;6.10;59.80
3850;DHT22;1940;51.052;13.678;2023-03-01T15:54:19;6.00;59.90
3850;DHT22;1940;51.052;13.678;2023-03-01T15:56:45;6.00;59.50
3850;DHT22;1940;51.052;13.678;2023-03-01T15:59:12;6.10;59.60
3850;DHT22;1940;51.052;13.678;2023-03-01T16:01:40;6.10;59.40
3850;DHT22;1940;51.052;13.678;2023-03-01T16:04:05;6.00;59.70
3850;DHT22;1940;51.052;13.678;2023-03-01T16:06:31;5.90;60.00
3850;DHT22;1940;51.052;13.678;2023-03-01T16:08:56;5.90;60.00
3850;DHT22;1940;51.052;13.678;2023-03-01T16:11:22;5.90;60.10
3850;DHT22;1940;51.052;13.678;2023-03-01T16:13:47;5.90;59.60
3850;DHT22;1940;51.052;13.678;2023-03-01T16:16:14;5.80;59.90
3850;DHT22;1940;51.052;13.678;2023-03-01T16:18:47;5.80;60.00
3850;DHT22;1940;51.052;13.678;2023-03-01T16:21:25;5.70;60.20
3850;DHT22;1940;51.052;13.678;2023-03-01T16:23:51;5.70;60.20
3850;DHT22;1940;51.052;13.678;2023-03-01T16:26:18;5.60;60.60
3850;DHT22;1940;51.052;13.678;2023-03-01T16:28:44;5.60;60.60
3850;DHT22;1940;51.052;13.678;2023-03-01T16:31:11;5.60;60.90
3850;DHT22;1940;51.052;13.678;2023-03-01T16:33:37;5.60;60.90
3850;DHT22;1940;51.052;13.678;2023-03-01T16:36:10;5.50;60.90
3850;DHT22;1940;51.052;13.678;2023-03-01T16:38:36;5.60;61.10
3850;DHT22;1940;51.052;13.678;2023-03-01T16:41:01;5.50;61.50
3850;DHT22;1940;51.052;13.678;2023-03-01T16:43:27;5.50;62.10
3850;DHT22;1940;51.052;13.678;2023-03-01T16:45:53;5.50;61.70
3850;DHT22;1940;51.052;13.678;2023-03-01T16:48:18;5.50;64.00
3850;DHT22;1940;51.052;13.678;2023-03-01T16:50:44;5.50;63.00
3850;DHT22;1940;51.052;13.678;2023-03-01T16:53:09;5.50;62.50
3850;DHT22;1940;51.052;13.678;2023-03-01T16:55:35;5.40;62.80
3850;DHT22;1940;51.052;13.678;2023-03-01T16:58:01;5.30;62.50
3850;DHT22;1940;51.052;13.678;2023-03-01T17:00:27;5.30;63.60
3850;DHT22;1940;51.052;13.678;2023-03-01T17:02:53;5.30;63.20
3850;DHT22;1940;51.052;13.678;2023-03-01T17:05:19;5.20;63.20
3850;DHT22;1940;51.052;13.678;2023-03-01T17:07:46;5.00;63.10
3850;DHT22;1940;51.052;13.678;2023-03-01T17:10:11;4.90;63.30
3850;DHT22;1940;51.052;13.678;2023-03-01T17:12:38;4.90;63.80
3850;DHT22;1940;51.052;13.678;2023-03-01T17:15:04;4.90;64.30
3850;DHT22;1940;51.052;13.678;2023-03-01T17:17:31;4.90;64.30
3850;DHT22;1940;51.052;13.678;2023-03-01T17:19:57;4.90;64.10
3850;DHT22;1940;51.052;13.678;2023-03-01T17:22:22;4.80;64.10
3850;DHT22;1940;51.052;13.678;2023-03-01T17:24:48;4.80;64.20
3850;DHT22;1940;51.052;13.678;2023-03-01T17:27:14;4.70;64.60
3850;DHT22;1940;51.052;13.678;2023-03-01T17:29:41;4.70;65.30
3850;DHT22;1940;51.052;13.678;2023-03-01T17:32:07;4.60;65.60
3850;DHT22;1940;51.052;13.678;2023-03-01T17:34:35;4.60;65.80
3850;DHT22;1940;51.052;13.678;2023-03-01T17:37:01;4.50;66.10